Time;durP1;ratioP1;P1;durP2;ratioP2;P2;SDS_P1;SDS_P2;PMS_P1;PMS_P2;Temp;Humidity;BMP_temperature;BMP_pressure;BME280_temperature;BME280_humidity;BME280_pressure;Samples;Min_cycle;Max_cycle;Signal;HPM_P1;HPM_P2
2021/12/20 00:00:52;;;;;;;30.30;17.75;;;;;;;7.23;63.42;99885.53;4995259;28;20105;-82
2021/12/20 00:03:18;;;;;;;26.00;15.90;;;;;;;7.22;63.18;99884.69;4995050;28;20034;-81
2021/12/20 00:05:44;;;;;;;22.83;14.30;;;;;;;7.22;63.45;99887.34;4994713;28;20036;-81
2021/12/20 00:08:09;;;;;;;25.23;16.10;;;;;;;7.27;62.72;99887.84;4994935;28;20443;-81
2021/12/20 00:10:35;;;;;;;25.33;14.07;;;;;;;7.32;62.78;99887.47;4996202;28;20018;-81
2021/12/20 00:13:04;;;;;;;27.77;15.82;;;;;;;7.33;62.83;99891.88;5002125;28;20030;-81
2021/12/20 00:15:29;;;;;;;23.45;13.45;;;;;;;7.35;62.99;99893.44;4999720;28;20050;-81
2021/12/20 00:17:59;;;;;;;24.10;14.90;;;;;;;7.43;62.97;99884.81;4984711;28;20072;-81
2021/12/20 00:20:27;;;;;;;22.67;14.02;;;;;;;7.39;62.69;99881.53;4990998;28;20026;-81
2021/12/20 00:22:58;;;;;;;19.80;13.20;;;;;;;7.52;62.22;99882.22;4985404;28;20477;-82
2021/12/20 00:25:24;;;;;;;19.63;13.80;;;;;;;7.50;61.92;99877.97;4995451;28;20069;-81
2021/12/20 00:27:49;;;;;;;24.73;14.38;;;;;;;7.45;62.10;99867.66;4978232;28;20030;-82
2021/12/20 00:30:17;;;;;;;22.88;14.20;;;;;;;7.50;62.15;99876.16;4978117;28;20397;-81
2021/12/20 00:32:44;;;;;;;24.80;15.32;;;;;;;7.47;62.09;99868.38;4978840;28;20029;-81
2021/12/20 00:35:13;;;;;;;26.83;14.27;;;;;;;7.56;62.06;99870.31;4996594;28;20049;-80
2021/12/20 00:40:25;;;;;;;22.73;14.20;;;;;;;7.53;61.66;99854.50;5002420;28;20033;-81
2021/12/20 00:43:02;;;;;;;24.02;14.10;;;;;;;7.53;61.51;99850.97;4981117;28;20120;-82
2021/12/20 00:45:32;;;;;;;22.90;12.90;;;;;;;7.47;61.69;99857.69;4996940;28;20416;-81
2021/12/20 00:47:59;;;;;;;24.17;13.80;;;;;;;7.47;61.98;99867.53;4996027;28;20022;-80
2021/12/20 00:50:26;;;;;;;20.52;13.32;;;;;;;7.50;62.09;99869.94;4996768;28;20065;-80
2021/12/20 00:52:52;;;;;;;21.92;12.63;;;;;;;7.45;61.88;99872.16;4999740;28;20029;-84
2021/12/20 00:55:19;;;;;;;24.83;13.00;;;;;;;7.40;62.33;99885.06;5000800;28;20027;-81
2021/12/20 00:57:47;;;;;;;24.92;14.13;;;;;;;7.46;61.98;99879.22;4995293;28;20050;-81
2021/12/20 01:00:15;;;;;;;28.80;15.45;;;;;;;7.36;62.05;99879.09;4995375;28;20019;-81
2021/12/20 01:02:40;;;;;;;25.90;14.75;;;;;;;7.47;62.42;99876.41;4994977;28;20033;-81
2021/12/20 01:05:07;;;;;;;22.42;13.25;;;;;;;7.48;62.23;99859.38;4977323;28;20022;-79
2021/12/20 01:07:32;;;;;;;24.45;14.35;;;;;;;7.55;62.48;99876.63;4994653;28;20054;-81
2021/12/20 01:10:02;;;;;;;19.80;12.88;;;;;;;7.49;62.28;99870.94;4977557;28;20053;-81
2021/12/20 01:12:35;;;;;;;26.40;14.45;;;;;;;7.53;63.02;99870.56;4963174;28;20487;-82
2021/12/20 01:15:01;;;;;;;22.73;13.65;;;;;;;7.56;63.24;99864.97;4994592;28;20034;-81
2021/12/20 01:17:28;;;;;;;26.80;14.85;;;;;;;7.55;62.97;99867.78;4995294;28;20069;-81
2021/12/20 01:19:54;;;;;;;26.35;14.50;;;;;;;7.52;63.21;99860.81;4994641;28;20066;-82
2021/12/20 01:22:19;;;;;;;27.10;15.23;;;;;;;7.54;63.50;99866.91;4994629;28;20026;-82
2021/12/20 01:24:45;;;;;;;27.05;15.38;;;;;;;7.57;63.71;99866.66;4995225;28;20037;-81
2021/12/20 01:27:12;;;;;;;27.63;14.85;;;;;;;7.59;63.38;99870.06;4977882;28;20480;-81
2021/12/20 01:29:37;;;;;;;23.70;15.80;;;;;;;7.56;63.75;99864.97;4977244;28;20035;-81
2021/12/20 01:32:03;;;;;;;29.20;17.92;;;;;;;7.49;63.51;99852.22;4994478;28;20033;-81
2021/12/20 01:34:28;;;;;;;32.83;17.05;;;;;;;7.56;63.54;99851.56;4976590;28;20026;-81
2021/12/20 01:36:55;;;;;;;30.50;18.40;;;;;;;7.49;63.57;99847.69;4995161;28;20085;-82
2021/12/20 01:39:22;;;;;;;36.80;20.33;;;;;;;7.51;63.84;99839.56;4977427;28;20105;-83
2021/12/20 01:41:51;;;;;;;32.00;20.60;;;;;;;7.43;64.28;99842.84;4996382;28;20030;-81
2021/12/20 01:44:17;;;;;;;32.17;21.85;;;;;;;7.42;64.55;99838.47;4977768;28;20096;-82
2021/12/20 01:46:44;;;;;;;37.22;20.17;;;;;;;7.47;64.18;99841.63;4994456;28;20101;-81
2021/12/20 01:49:13;;;;;;;32.42;20.40;;;;;;;7.46;64.25;99837.22;4981110;28;20023;-82
2021/12/20 01:54:26;;;;;;;29.55;18.67;;;;;;;7.43;64.67;99832.13;4998855;28;20039;-82
2021/12/20 01:56:51;;;;;;;31.42;20.02;;;;;;;7.50;64.70;99828.00;4980507;28;20042;-82
2021/12/20 01:59:18;;;;;;;32.13;19.58;;;;;;;7.50;64.23;99819.97;4964466;28;20484;-81
2021/12/20 02:01:46;;;;;;;31.63;19.48;;;;;;;7.53;64.04;99817.03;4980639;28;20030;-81
2021/12/20 02:04:12;;;;;;;34.63;21.05;;;;;;;7.54;63.66;99818.75;4975497;28;20488;-80
2021/12/20 02:06:45;;;;;;;38.28;20.50;;;;;;;7.55;64.06;99815.09;4980846;28;20026;-80
2021/12/20 02:09:23;;;;;;;34.10;19.98;;;;;;;7.54;63.62;99812.56;4994343;28;20026;-82
2021/12/20 02:11:50;;;;;;;32.05;20.50;;;;;;;7.59;63.35;99805.84;4964216;28;20041;-81
2021/12/20 02:14:17;;;;;;;36.53;21.98;;;;;;;7.59;63.25;99791.59;4980225;28;20030;-82
2021/12/20 02:16:44;;;;;;;28.27;19.65;;;;;;;7.61;63.35;99790.50;4997342;28;20573;-82
2021/12/20 02:19:16;;;;;;;31.88;20.40;;;;;;;7.44;63.33;99796.41;4998072;28;20050;-81
2021/12/20 02:21:47;;;;;;;;;;;;;;;7.53;64.05;99794.78;4980311;28;20495;-81
2021/12/20 02:24:14;;;;;;;30.52;18.17;;;;;;;7.58;63.38;99789.94;4980290;28;19913;-81
2021/12/20 02:26:39;;;;;;;31.55;18.55;;;;;;;7.62;63.27;99794.03;4997537;28;20046;-81
2021/12/20 02:29:07;;;;;;;33.45;19.42;;;;;;;7.61;63.42;99790.50;4998952;28;20026;-80
2021/12/20 02:37:36;;;;;;;30.75;18.95;;;;;;;7.70;63.20;99786.25;4997299;28;20072;-81
2021/12/20 02:40:02;;;;;;;36.53;20.40;;;;;;;7.82;62.70;99789.72;4966870;28;20030;-80
2021/12/20 02:42:33;;;;;;;29.88;20.13;;;;;;;7.85;62.30;99794.81;4998660;28;20096;-80
2021/12/20 02:45:09;;;;;;;34.58;21.48;;;;;;;7.90;62.19;99787.22;4981774;28;20058;-81
2021/12/20 02:47:44;;;;;;;37.58;20.92;;;;;;;7.93;62.43;99785.16;4993495;28;20408;-81
2021/12/20 02:50:10;;;;;;;31.52;19.67;;;;;;;7.93;62.31;99786.97;5005036;28;20034;-81
2021/12/20 02:52:36;;;;;;;33.92;19.45;;;;;;;7.95;61.75;99785.03;5001813;28;20481;-81
2021/12/20 02:55:03;;;;;;;33.15;18.77;;;;;;;7.89;61.26;99780.19;4996496;28;20084;-81
2021/12/20 02:57:28;;;;;;;31.05;20.20;;;;;;;7.88;61.63;99786.53;4996830;28;20052;-81
2021/12/20 02:59:54;;;;;;;40.00;18.40;;;;;;;7.95;62.22;99785.03;4996591;28;20548;-83
2021/12/20 03:02:22;;;;;;;28.73;19.85;;;;;;;7.97;61.50;99783.06;4996242;28;20037;-82
2021/12/20 03:04:48;;;;;;;34.65;18.83;;;;;;;8.03;61.77;99778.06;4980514;28;20031;-82
2021/12/20 03:07:22;;;;;;;30.88;19.05;;;;;;;8.10;61.72;99765.00;4979068;28;20034;-82
2021/12/20 03:10:03;;;;;;;37.90;19.88;;;;;;;8.11;61.41;99766.69;4994994;28;20042;-82
2021/12/20 03:12:32;;;;;;;36.78;21.55;;;;;;;8.06;61.17;99768.91;4996247;28;20084;-81
2021/12/20 03:15:04;;;;;;;40.17;20.63;;;;;;;8.15;61.46;99765.44;4996931;28;20407;-81
2021/12/20 03:17:30;;;;;;;35.85;21.50;;;;;;;8.14;61.39;99772.63;4964266;28;20034;-81
2021/12/20 03:19:55;;;;;;;33.25;19.60;;;;;;;8.16;60.68;99767.16;4980654;28;20053;-81
2021/12/20 03:22:21;;;;;;;32.40;18.50;;;;;;;8.09;60.54;99772.19;4979157;28;20026;-82
2021/12/20 03:24:48;;;;;;;35.65;18.45;;;;;;;8.08;60.78;99781.19;5000249;28;20085;-81
2021/12/20 03:27:14;;;;;;;31.55;17.67;;;;;;;7.99;61.07;99770.41;4979088;28;20100;-81
2021/12/20 03:29:39;;;;;;;32.40;18.75;;;;;;;8.10;61.08;99778.41;4962664;28;20439;-81
2021/12/20 03:32:05;;;;;;;28.60;16.75;;;;;;;8.10;60.74;99779.22;4978133;28;20062;-80
2021/12/20 03:34:31;;;;;;;27.48;15.98;;;;;;;8.08;60.98;99780.34;4962789;28;20385;-81
2021/12/20 03:36:57;;;;;;;28.00;16.70;;;;;;;8.05;61.15;99772.56;4982402;28;20197;-81
2021/12/20 03:39:22;;;;;;;31.10;14.90;;;;;;;8.02;60.90;99759.44;4979302;28;20038;-82
2021/12/20 03:41:49;;;;;;;30.85;16.63;;;;;;;8.10;61.13;99767.69;4996596;28;20499;-81
2021/12/20 03:44:16;;;;;;;26.05;15.35;;;;;;;8.15;60.60;99771.66;4978067;28;20507;-81
2021/12/20 03:46:42;;;;;;;27.70;15.95;;;;;;;8.11;60.96;99766.69;4995903;28;20485;-81
2021/12/20 03:49:10;;;;;;;23.45;13.93;;;;;;;8.10;61.12;99760.47;4995508;28;20134;-81
2021/12/20 03:51:36;;;;;;;21.75;12.98;;;;;;;8.04;61.23;99757.50;4996195;28;20026;-81
2021/12/20 03:54:22;;;;;;;22.40;13.38;;;;;;;7.96;61.08;99754.59;4995518;28;20480;-81
2021/12/20 03:56:49;;;;;;;23.85;13.73;;;;;;;7.81;61.50;99739.81;4995419;28;20099;-82
2021/12/20 03:59:14;;;;;;;21.10;11.98;;;;;;;7.88;61.80;99762.44;4978198;28;20033;-81
2021/12/20 04:01:40;;;;;;;19.42;11.57;;;;;;;7.92;62.05;99761.22;4977675;28;20030;-82
2021/12/20 04:04:06;;;;;;;16.15;11.02;;;;;;;7.78;62.22;99740.09;4995686;28;20022;-82
2021/12/20 04:06:34;;;;;;;16.23;10.98;;;;;;;7.84;62.60;99747.59;4978932;28;20041;-81
2021/12/20 04:09:01;;;;;;;21.85;11.80;;;;;;;7.83;63.13;99752.09;4969086;28;20038;-80
2021/12/20 04:11:39;;;;;;;17.83;10.90;;;;;;;7.79;63.12;99753.34;4976577;28;20042;-81
2021/12/20 04:14:06;;;;;;;19.63;12.15;;;;;;;7.81;62.89;99750.53;4995149;28;20027;-82
2021/12/20 04:16:33;;;;;;;20.23;12.07;;;;;;;7.71;63.43;99729.03;5000688;28;20027;-81
2021/12/20 04:18:59;;;;;;;16.88;10.77;;;;;;;7.84;63.63;99744.91;4993775;28;20109;-82
2021/12/20 04:21:25;;;;;;;19.98;10.90;;;;;;;7.88;62.91;99751.72;4978074;28;20026;-82
2021/12/20 04:24:03;;;;;;;18.38;11.05;;;;;;;7.93;63.59;99749.50;4948423;28;20122;-81
2021/12/20 04:26:28;;;;;;;13.90;9.65;;;;;;;7.95;62.61;99742.22;4979303;28;20054;-82
2021/12/20 04:28:53;;;;;;;17.42;11.13;;;;;;;7.90;62.97;99731.88;4958745;28;20062;-81
2021/12/20 04:31:19;;;;;;;15.27;10.52;;;;;;;7.88;63.26;99738.34;4976154;28;20547;-83
2021/12/20 04:33:44;;;;;;;15.88;10.75;;;;;;;7.91;62.81;99740.75;4975337;28;20027;-81
2021/12/20 04:36:11;;;;;;;14.85;10.20;;;;;;;7.84;62.92;99747.59;4978430;28;20350;-81
2021/12/20 04:38:37;;;;;;;18.38;10.18;;;;;;;7.87;62.81;99745.50;4995493;28;20034;-81
2021/12/20 04:41:02;;;;;;;18.58;10.60;;;;;;;7.93;62.17;99755.72;4995581;28;20103;-81
2021/12/20 04:43:28;;;;;;;18.00;11.13;;;;;;;7.93;62.77;99741.47;4977631;28;20032;-81
2021/12/20 04:45:53;;;;;;;22.08;11.55;;;;;;;7.99;62.27;99743.63;4995031;28;20034;-83
2021/12/20 04:48:19;;;;;;;20.42;11.82;;;;;;;8.00;62.84;99734.63;4977417;28;20030;-82
2021/12/20 04:50:46;;;;;;;16.25;9.93;;;;;;;7.99;62.22;99728.41;4977030;28;20428;-81
2021/12/20 04:53:13;;;;;;;17.60;11.15;;;;;;;7.91;62.27;99730.06;4994302;28;20404;-81
2021/12/20 04:55:39;;;;;;;18.63;9.95;;;;;;;7.97;62.41;99740.25;4976600;28;20034;-82
2021/12/20 04:58:06;;;;;;;15.43;9.88;;;;;;;7.85;61.99;99725.22;4961198;28;20045;-82
2021/12/20 05:00:33;;;;;;;22.52;9.70;;;;;;;7.80;62.16;99717.56;4977501;28;20050;-88
2021/12/20 05:03:00;;;;;;;15.48;9.07;;;;;;;7.74;62.90;99706.50;4995390;28;20033;-87
2021/12/20 05:05:28;;;;;;;11.95;9.27;;;;;;;7.70;62.83;99694.41;4994846;28;20490;-87
2021/12/20 05:07:54;;;;;;;17.65;10.05;;;;;;;7.68;63.13;99698.03;4995016;28;20057;-87
2021/12/20 05:10:29;;;;;;;16.70;10.40;;;;;;;7.56;63.12;99709.78;4977963;28;20452;-87
2021/12/20 05:12:59;;;;;;;18.48;8.70;;;;;;;7.72;63.03;99708.47;4977456;28;20034;-86
2021/12/20 05:15:26;;;;;;;15.88;10.77;;;;;;;7.70;63.25;99722.00;4994123;28;20034;-82
2021/12/20 05:17:52;;;;;;;18.75;11.30;;;;;;;7.65;62.93;99730.41;4994083;28;20042;-83
2021/12/20 05:20:19;;;;;;;16.48;10.38;;;;;;;7.63;63.47;99728.84;4993682;28;20132;-80
2021/12/20 05:22:44;;;;;;;16.13;9.50;;;;;;;7.72;62.72;99746.81;4979677;28;20046;-81
2021/12/20 05:25:11;;;;;;;18.67;10.50;;;;;;;7.75;63.10;99746.53;4997674;28;20042;-80
2021/12/20 05:27:37;;;;;;;21.40;11.30;;;;;;;7.78;63.18;99756.16;4997846;28;20048;-80
2021/12/20 05:30:06;;;;;;;21.58;11.02;;;;;;;7.72;63.12;99751.31;4980327;28;20404;-80
2021/12/20 05:32:31;;;;;;;27.67;12.25;;;;;;;7.67;63.48;99749.03;4981697;28;20113;-81
2021/12/20 05:34:57;;;;;;;19.45;11.10;;;;;;;7.75;63.18;99756.41;4980157;28;20120;-81
2021/12/20 05:37:22;;;;;;;14.65;10.38;;;;;;;7.68;63.15;99759.59;4981349;28;20030;-79
2021/12/20 05:39:51;;;;;;;15.70;9.20;;;;;;;7.79;63.12;99779.25;4981447;28;20026;-79
2021/12/20 05:42:18;;;;;;;15.13;10.63;;;;;;;7.75;62.89;99773.31;4981070;28;20118;-80
2021/12/20 05:44:45;;;;;;;24.65;9.60;;;;;;;7.79;63.43;99779.25;4981476;28;20112;-80
2021/12/20 05:47:10;;;;;;;19.00;10.30;;;;;;;7.82;63.88;99785.22;4972341;28;20416;-79
2021/12/20 05:49:36;;;;;;;37.40;10.57;;;;;;;7.68;63.47;99789.03;5010835;28;20113;-81
2021/12/20 05:52:03;;;;;;;20.35;9.63;;;;;;;7.74;63.98;99790.34;4980258;28;20104;-80
2021/12/20 05:54:30;;;;;;;20.50;11.70;;;;;;;7.70;64.06;99801.44;4998208;28;20026;-80
2021/12/20 05:56:56;;;;;;;17.45;10.15;;;;;;;7.59;64.12;99800.50;4997892;28;20117;-80
2021/12/20 05:59:22;;;;;;;16.95;10.95;;;;;;;7.62;64.24;99791.34;4980665;28;20054;-81
2021/12/20 06:01:47;;;;;;;16.83;10.45;;;;;;;7.65;64.18;99796.44;4996966;28;20541;-81
2021/12/20 06:04:12;;;;;;;20.10;12.25;;;;;;;7.57;64.78;99798.91;4998138;28;20415;-80
2021/12/20 06:06:38;;;;;;;17.95;10.82;;;;;;;7.58;64.99;99809.47;4997691;28;20092;-80
2021/12/20 06:09:03;;;;;;;18.45;11.05;;;;;;;7.55;64.75;99800.88;4980515;28;20026;-79
2021/12/20 06:11:30;;;;;;;19.90;11.23;;;;;;;7.53;65.15;99811.69;4997999;28;20042;-80
2021/12/20 06:13:55;;;;;;;18.70;11.73;;;;;;;7.53;64.97;99818.88;4998599;28;20026;-81
2021/12/20 06:16:22;;;;;;;17.05;9.95;;;;;;;7.51;65.08;99816.34;4998374;28;20042;-80
2021/12/20 06:18:51;;;;;;;20.33;12.27;;;;;;;7.48;65.42;99807.69;4997432;28;20060;-81
2021/12/20 06:21:17;;;;;;;17.58;10.40;;;;;;;7.55;65.21;99822.28;4981496;28;20085;-80
2021/12/20 06:23:43;;;;;;;23.80;10.93;;;;;;;7.59;65.20;99832.59;4998335;28;20034;-81
2021/12/20 06:26:08;;;;;;;18.45;11.30;;;;;;;7.60;65.69;99839.66;4997917;28;20097;-80
2021/12/20 06:28:34;;;;;;;18.30;11.73;;;;;;;7.64;65.15;99841.09;4980982;28;20472;-81
2021/12/20 06:31:01;;;;;;;24.10;11.23;;;;;;;7.61;65.47;99845.88;4998311;28;20030;-81
2021/12/20 06:33:27;;;;;;;17.02;11.05;;;;;;;7.64;65.58;99851.78;4979692;28;20054;-80
2021/12/20 06:35:55;;;;;;;17.70;12.07;;;;;;;7.54;65.71;99850.00;4998466;28;20058;-80
2021/12/20 06:38:22;;;;;;;32.55;12.48;;;;;;;7.52;65.61;99860.00;4998027;28;20112;-82
2021/12/20 06:40:49;;;;;;;29.27;15.38;;;;;;;7.41;65.85;99860.00;4997326;28;20029;-80
2021/12/20 06:43:16;;;;;;;22.85;11.63;;;;;;;7.33;66.02;99860.63;4979492;28;20051;-81
2021/12/20 06:45:42;;;;;;;25.45;13.68;;;;;;;7.32;66.18;99856.22;4997259;28;20026;-80
2021/12/20 06:48:09;;;;;;;40.55;14.15;;;;;;;7.35;66.34;99866.69;4997213;28;20049;-80
2021/12/20 06:50:36;;;;;;;22.02;12.57;;;;;;;7.39;66.58;99868.16;4979996;28;20018;-81
2021/12/20 06:53:05;;;;;;;20.40;12.60;;;;;;;7.39;65.97;99862.81;4979991;28;20037;-81
2021/12/20 06:55:32;;;;;;;26.95;14.32;;;;;;;7.33;66.32;99868.66;4996465;28;20022;-81
2021/12/20 06:57:58;;;;;;;42.67;15.52;;;;;;;7.29;66.90;99877.88;4997464;28;20066;-81
2021/12/20 07:00:23;;;;;;;25.92;14.80;;;;;;;7.26;67.28;99877.25;4980343;28;20034;-81
2021/12/20 07:02:49;;;;;;;23.88;14.68;;;;;;;7.19;66.85;99881.38;4973650;28;20077;-81
2021/12/20 07:05:15;;;;;;;24.13;14.05;;;;;;;7.20;66.87;99889.31;4985309;28;20505;-81
2021/12/20 07:07:41;;;;;;;29.08;14.80;;;;;;;7.03;67.09;99876.44;4985261;28;20412;-82
2021/12/20 07:10:09;;;;;;;37.72;15.95;;;;;;;7.07;67.13;99884.06;4996776;28;20028;-82
2021/12/20 07:12:37;;;;;;;31.08;16.42;;;;;;;7.12;67.33;99891.75;4980372;28;20022;-87
2021/12/20 07:15:09;;;;;;;45.75;20.20;;;;;;;7.21;67.19;99891.03;4997321;28;20026;-83
2021/12/20 07:17:34;;;;;;;41.15;19.88;;;;;;;7.24;67.06;99885.44;4979770;28;20030;-81
2021/12/20 07:20:00;;;;;;;35.85;15.27;;;;;;;7.16;66.66;99876.28;4961381;28;20054;-80
2021/12/20 07:22:25;;;;;;;50.30;18.58;;;;;;;7.29;66.50;99880.56;4956826;29;20180;-81
2021/12/20 07:24:51;;;;;;;66.70;21.02;;;;;;;7.31;66.73;99875.91;4965009;29;20027;-83
2021/12/20 07:27:18;;;;;;;30.00;18.13;;;;;;;7.35;66.92;99890.75;4975429;29;20059;-83
2021/12/20 07:29:45;;;;;;;37.38;17.35;;;;;;;7.35;66.85;99882.72;4957177;29;20098;-83
2021/12/20 07:32:11;;;;;;;29.00;15.15;;;;;;;7.36;66.58;99889.78;4959380;29;20560;-84
2021/12/20 07:34:38;;;;;;;25.20;14.98;;;;;;;7.43;66.67;99888.31;4957931;28;20039;-84
2021/12/20 07:37:06;;;;;;;27.77;13.55;;;;;;;7.49;66.42;99889.66;4956520;29;20091;-81
2021/12/20 07:39:32;;;;;;;41.67;14.38;;;;;;;7.53;66.31;99897.31;4957544;28;20504;-87
2021/12/20 07:41:59;;;;;;;31.50;13.95;;;;;;;7.55;65.80;99884.66;4957388;28;20031;-84
2021/12/20 07:44:25;;;;;;;25.52;13.20;;;;;;;7.61;66.00;99896.72;4960820;28;20114;-81
2021/12/20 07:46:50;;;;;;;24.02;12.35;;;;;;;7.59;65.40;99886.13;4965257;28;20453;-87
2021/12/20 07:49:19;;;;;;;34.15;14.10;;;;;;;7.72;64.95;99891.31;4982158;28;20026;-81
2021/12/20 07:51:45;;;;;;;29.38;13.13;;;;;;;7.74;64.72;99893.84;4973290;28;20042;-80
2021/12/20 07:54:11;;;;;;;32.53;13.43;;;;;;;7.84;64.49;99886.78;4958443;28;20019;-79
2021/12/20 07:56:36;;;;;;;31.10;13.38;;;;;;;7.90;64.22;99905.03;4959461;29;20053;-79
2021/12/20 07:59:02;;;;;;;22.00;12.40;;;;;;;7.80;63.76;99894.22;4956832;29;20520;-78
2021/12/20 08:01:27;;;;;;;37.78;12.15;;;;;;;7.84;64.23;99900.19;4957306;28;20565;-78
2021/12/20 08:03:53;;;;;;;23.88;13.50;;;;;;;7.79;64.10;99897.88;4958491;28;20490;-78
2021/12/20 08:06:20;;;;;;;21.55;11.07;;;;;;;7.74;64.36;99884.00;4958418;28;20086;-78
2021/12/20 08:08:45;;;;;;;41.70;15.07;;;;;;;7.77;64.18;99904.34;4959045;28;20027;-79
2021/12/20 08:11:11;;;;;;;25.73;13.10;;;;;;;7.88;64.80;99901.63;4963172;29;20086;-79
2021/12/20 08:13:44;;;;;;;26.98;14.68;;;;;;;7.94;64.67;99904.66;4967725;28;20035;-86
2021/12/20 08:16:11;;;;;;;24.75;14.07;;;;;;;8.01;63.79;99895.13;4973540;28;20406;-81
2021/12/20 08:18:38;;;;;;;25.63;14.90;;;;;;;8.00;64.15;99900.63;4963445;28;20193;-85
2021/12/20 08:21:03;;;;;;;21.13;13.02;;;;;;;8.05;64.30;99904.63;4997654;28;20160;-80
2021/12/20 08:23:29;;;;;;;22.73;12.93;;;;;;;8.06;63.33;99889.41;4995480;28;20057;-82
2021/12/20 08:25:55;;;;;;;24.33;13.18;;;;;;;8.19;63.26;99917.72;4995746;28;20025;-81
2021/12/20 08:28:20;;;;;;;22.60;12.30;;;;;;;8.21;63.71;99915.78;4996490;28;20033;-82
2021/12/20 08:30:45;;;;;;;34.25;12.98;;;;;;;8.27;62.94;99922.44;4996613;28;20025;-83
2021/12/20 08:33:12;;;;;;;25.65;13.23;;;;;;;8.25;62.94;99927.09;4995990;28;20400;-82
2021/12/20 08:35:38;;;;;;;27.52;13.75;;;;;;;8.08;63.29;99924.94;4996343;28;20026;-83
2021/12/20 08:38:03;;;;;;;21.85;12.68;;;;;;;8.12;63.81;99927.25;4995793;28;20060;-82
2021/12/20 08:40:29;;;;;;;28.17;15.25;;;;;;;8.23;63.82;99923.66;4995655;28;20045;-83
2021/12/20 08:42:55;;;;;;;23.27;13.65;;;;;;;8.30;63.53;99929.41;4996784;28;20022;-84
2021/12/20 08:45:20;;;;;;;28.08;15.13;;;;;;;8.42;63.31;99926.56;4994139;28;20176;-82
2021/12/20 08:47:46;;;;;;;25.80;13.65;;;;;;;8.45;62.52;99931.66;4977415;28;20026;-81
2021/12/20 08:50:15;;;;;;;27.35;12.75;;;;;;;8.45;62.32;99931.66;4995855;28;20023;-82
2021/12/20 08:52:41;;;;;;;22.25;13.23;;;;;;;8.48;62.07;99935.91;4994969;28;20022;-82
2021/12/20 08:55:08;;;;;;;26.63;11.15;;;;;;;8.44;61.93;99940.66;4994958;28;20042;-82
2021/12/20 08:57:33;;;;;;;18.35;11.30;;;;;;;8.46;62.02;99930.69;4994231;28;20018;-83
2021/12/20 09:00:00;;;;;;;20.65;12.73;;;;;;;8.58;62.39;99937.69;4994452;28;20014;-83
2021/12/20 09:02:25;;;;;;;24.92;13.38;;;;;;;8.67;61.76;99934.25;4994563;28;20109;-83
2021/12/20 09:04:51;;;;;;;69.78;16.77;;;;;;;8.69;61.55;99948.34;4994582;28;20054;-84
2021/12/20 09:07:20;;;;;;;33.10;15.55;;;;;;;8.84;61.71;99940.00;4994650;28;20197;-83
2021/12/20 09:09:47;;;;;;;28.75;14.13;;;;;;;8.98;61.85;99945.88;5003128;28;20030;-82
2021/12/20 09:12:18;;;;;;;25.95;12.55;;;;;;;8.98;61.03;99943.22;4988018;28;20077;-85
2021/12/20 09:14:44;;;;;;;27.15;15.13;;;;;;;9.11;60.59;99935.78;4998444;28;20018;-83
2021/12/20 09:17:10;;;;;;;23.77;11.40;;;;;;;9.20;60.18;99937.66;4994474;28;20552;-83
2021/12/20 09:19:36;;;;;;;20.83;11.20;;;;;;;9.26;59.99;99925.59;4994551;28;20053;-82
2021/12/20 09:22:06;;;;;;;24.10;11.45;;;;;;;9.32;59.75;99929.56;4994494;28;20049;-81
2021/12/20 09:24:33;;;;;;;23.05;13.35;;;;;;;9.35;60.10;99935.50;4993514;28;20023;-83
2021/12/20 09:27:00;;;;;;;25.70;12.98;;;;;;;9.39;59.77;99931.56;4994042;28;20054;-82
2021/12/20 09:29:26;;;;;;;32.75;12.75;;;;;;;9.47;59.70;99934.44;4993513;28;20023;-82
2021/12/20 09:31:51;;;;;;;26.55;13.27;;;;;;;9.43;59.61;99930.31;4994059;28;20026;-81
2021/12/20 09:34:17;;;;;;;27.23;12.25;;;;;;;9.45;59.78;99936.38;4994263;28;20105;-82
2021/12/20 09:36:43;;;;;;;19.30;11.60;;;;;;;9.43;59.71;99938.38;4993934;28;20053;-84
2021/12/20 09:39:11;;;;;;;16.00;9.52;;;;;;;9.46;59.66;99940.78;4993712;28;20057;-83
2021/12/20 09:44:08;;;;;;;23.75;12.27;;;;;;;9.49;59.78;99953.94;4993631;28;20031;-85
2021/12/20 09:46:34;;;;;;;20.02;12.23;;;;;;;9.47;59.46;99958.59;4976351;28;20022;-83
2021/12/20 09:49:00;;;;;;;19.25;11.50;;;;;;;9.36;59.81;99957.84;4993769;28;20315;-83
2021/12/20 09:51:26;;;;;;;27.38;13.52;;;;;;;9.39;60.03;99957.56;4993808;28;20033;-83
2021/12/20 09:53:52;;;;;;;18.85;11.18;;;;;;;9.46;59.60;99951.50;4995399;28;20026;-81
2021/12/20 09:56:19;;;;;;;15.65;10.18;;;;;;;9.51;59.17;99960.00;4994561;28;20097;-82
2021/12/20 09:58:48;;;;;;;19.55;11.07;;;;;;;9.46;58.79;99946.16;4996296;28;20035;-83
2021/12/20 10:01:14;;;;;;;16.30;10.30;;;;;;;9.38;58.78;99959.41;4993636;28;20096;-81
2021/12/20 10:03:43;;;;;;;20.65;9.55;;;;;;;9.30;58.62;99953.81;4993845;28;20022;-83
2021/12/20 10:06:08;;;;;;;21.98;11.32;;;;;;;9.17;58.88;99954.03;4994614;28;20030;-81
2021/12/20 10:08:36;;;;;;;23.40;10.75;;;;;;;9.15;59.45;99947.09;4995896;28;20042;-83
2021/12/20 10:11:16;;;;;;;17.92;11.40;;;;;;;9.12;59.54;99942.00;4997729;28;20105;-82
2021/12/20 10:13:42;;;;;;;27.88;11.45;;;;;;;9.15;60.02;99952.47;4998156;28;20026;-82
2021/12/20 10:16:19;;;;;;;20.08;10.57;;;;;;;9.27;59.45;99943.38;4997979;28;20121;-81
2021/12/20 10:18:45;;;;;;;22.58;10.60;;;;;;;9.26;58.65;99936.31;4997168;28;20053;-83
2021/12/20 10:21:11;;;;;;;18.73;10.88;;;;;;;9.24;58.57;99936.44;4997335;28;20022;-82
2021/12/20 10:23:44;;;;;;;16.10;10.43;;;;;;;9.12;58.96;99939.31;4997207;28;20403;-82
2021/12/20 10:26:22;;;;;;;19.90;11.52;;;;;;;9.07;59.39;99938.88;4997705;28;20440;-82
2021/12/20 10:28:53;;;;;;;30.48;11.32;;;;;;;9.14;60.17;99934.69;5002874;28;20030;-82
2021/12/20 10:31:21;;;;;;;18.83;12.13;;;;;;;9.15;60.05;99939.06;4997281;28;20030;-83
2021/12/20 10:34:00;;;;;;;19.38;12.15;;;;;;;9.33;59.35;99934.78;4997516;28;20033;-81
2021/12/20 10:36:26;;;;;;;17.88;12.93;;;;;;;9.50;59.34;99947.59;4998673;28;20026;-82
2021/12/20 10:38:56;;;;;;;20.20;10.75;;;;;;;9.54;58.70;99940.94;4980348;28;20018;-83
2021/12/20 10:41:36;;;;;;;16.73;10.85;;;;;;;9.63;58.74;99929.41;4996576;28;20030;-81
2021/12/20 10:44:14;;;;;;;16.02;10.98;;;;;;;9.70;57.93;99941.31;4997834;28;20029;-81
2021/12/20 10:46:46;;;;;;;12.13;9.00;;;;;;;9.67;58.08;99940.72;4997552;28;20109;-83
2021/12/20 10:49:14;;;;;;;16.63;10.23;;;;;;;9.58;58.48;99942.38;5002943;28;20097;-81
2021/12/20 10:51:51;;;;;;;14.23;8.75;;;;;;;9.56;58.46;99951.56;5002535;28;20030;-82
2021/12/20 10:54:20;;;;;;;16.38;9.20;;;;;;;9.43;59.10;99948.25;5003346;28;20025;-81
2021/12/20 10:56:53;;;;;;;16.75;10.00;;;;;;;9.38;59.29;99955.84;4996487;28;20085;-82
2021/12/20 10:59:27;;;;;;;16.92;9.32;;;;;;;9.33;59.19;99948.19;4997292;28;20083;-82
2021/12/20 11:04:24;;;;;;;13.77;9.75;;;;;;;9.34;59.42;99949.91;4996275;28;20026;-82
2021/12/20 11:09:04;;;;;;;16.70;9.80;;;;;;;9.41;59.41;99956.44;4996243;28;20036;-82
2021/12/20 11:10:00;;;;;;;17.67;10.85;;;;;;;9.37;59.40;99963.06;4995865;28;20076;-81
2021/12/20 11:12:33;;;;;;;22.58;10.00;;;;;;;9.42;59.32;99954.63;4996263;28;20029;-82
2021/12/20 11:15:10;;;;;;;27.27;11.68;;;;;;;9.42;59.34;99955.44;4995351;28;20058;-82
2021/12/20 11:17:41;;;;;;;19.63;11.48;;;;;;;9.42;59.07;99957.31;4996313;28;20093;-81
2021/12/20 11:20:07;;;;;;;48.72;13.93;;;;;;;9.36;58.66;99964.03;4994960;28;20043;-77
2021/12/20 11:22:33;;;;;;;29.30;12.30;;;;;;;9.16;59.32;99965.78;4995262;28;20019;-82
2021/12/20 11:25:07;;;;;;;20.95;11.20;;;;;;;9.09;59.35;99969.09;4995473;28;20026;-79
2021/12/20 11:27:40;;;;;;;21.10;11.18;;;;;;;9.03;60.09;99966.94;4995467;28;20539;-85
2021/12/20 11:30:10;;;;;;;19.15;11.50;;;;;;;9.02;59.98;99970.63;4995804;28;20022;-85
2021/12/20 11:32:36;;;;;;;17.90;10.85;;;;;;;9.01;59.54;99985.00;4995041;28;20030;-82
2021/12/20 11:35:02;;;;;;;22.13;13.25;;;;;;;9.01;60.35;99985.00;4996348;28;20401;-81
2021/12/20 11:37:29;;;;;;;26.17;11.60;;;;;;;8.93;59.31;99982.13;4995485;28;20026;-83
2021/12/20 11:39:57;;;;;;;19.00;11.63;;;;;;;8.98;59.25;99996.84;4992706;28;20022;-85
2021/12/20 11:42:24;;;;;;;17.85;10.70;;;;;;;8.85;59.47;99992.63;4994951;28;20141;-83
2021/12/20 11:44:54;;;;;;;14.80;9.82;;;;;;;8.72;59.28;99995.50;4995786;28;20365;-85